Time;durP1;ratioP1;P1;durP2;ratioP2;P2;SDS_P1;SDS_P2;PMS_P1;PMS_P2;Temp;Humidity;BMP_temperature;BMP_pressure;BME280_temperature;BME280_humidity;BME280_pressure;Samples;Min_cycle;Max_cycle;Signal;HPM_P1;HPM_P2
2022/10/10 00:00:41;;;;;;;;;;;21.40;48.70;;;;;;493930;241;1184;-53
2022/10/10 00:02:43;;;;;;;;;;;21.40;48.70;;;;;;494238;241;1156;-54
2022/10/10 00:04:44;;;;;;;;;;;21.40;48.70;;;;;;494243;241;1250;-53
2022/10/10 00:06:45;;;;;;;;;;;21.40;48.70;;;;;;493793;241;1319;-53
2022/10/10 00:08:46;;;;;;;;;;;21.40;48.80;;;;;;493952;241;1252;-53
2022/10/10 00:10:48;;;;;;;;;;;21.40;48.80;;;;;;493745;241;1571;-54
2022/10/10 00:12:49;;;;;;;;;;;21.40;48.80;;;;;;494020;241;1520;-54
2022/10/10 00:14:50;;;;;;;;;;;21.40;48.80;;;;;;493855;241;1212;-53
2022/10/10 00:16:52;;;;;;;;;;;21.40;48.90;;;;;;493773;241;1696;-53
2022/10/10 00:18:53;;;;;;;;;;;21.40;48.90;;;;;;493827;241;2199;-54
2022/10/10 00:20:54;;;;;;;;;;;21.40;48.80;;;;;;493989;241;1274;-54
2022/10/10 00:22:56;;;;;;;;;;;21.40;48.90;;;;;;494127;241;1261;-53
2022/10/10 00:24:57;;;;;;;;;;;21.40;48.80;;;;;;494081;241;1244;-54
2022/10/10 00:26:58;;;;;;;;;;;21.40;48.80;;;;;;493813;241;1184;-53
2022/10/10 00:29:00;;;;;;;;;;;21.40;48.80;;;;;;493987;241;1329;-53
2022/10/10 00:31:01;;;;;;;;;;;21.40;48.80;;;;;;493864;241;1201;-54
2022/10/10 00:33:02;;;;;;;;;;;21.40;48.80;;;;;;493822;241;1222;-53
2022/10/10 00:35:04;;;;;;;;;;;21.40;48.90;;;;;;494277;241;1234;-53
2022/10/10 00:37:05;;;;;;;;;;;21.30;48.80;;;;;;494260;241;1183;-54
2022/10/10 00:39:06;;;;;;;;;;;21.30;48.80;;;;;;494270;241;2152;-54
2022/10/10 00:41:08;;;;;;;;;;;21.30;48.80;;;;;;494053;241;1203;-53
2022/10/10 00:43:09;;;;;;;;;;;21.30;48.80;;;;;;493808;241;1179;-54
2022/10/10 00:45:10;;;;;;;;;;;21.40;48.90;;;;;;494252;241;1236;-53
2022/10/10 00:47:12;;;;;;;;;;;21.40;48.90;;;;;;494037;241;1556;-53
2022/10/10 00:49:13;;;;;;;;;;;21.40;48.80;;;;;;494233;241;1181;-53
2022/10/10 00:51:14;;;;;;;;;;;21.40;48.90;;;;;;493773;241;1230;-54
2022/10/10 00:53:16;;;;;;;;;;;21.30;48.80;;;;;;494271;241;1550;-53
2022/10/10 00:55:17;;;;;;;;;;;21.30;48.80;;;;;;493847;241;1243;-53
2022/10/10 00:57:18;;;;;;;;;;;21.40;48.80;;;;;;493810;241;1217;-53
2022/10/10 00:59:20;;;;;;;;;;;21.30;48.80;;;;;;494248;241;2202;-53
2022/10/10 01:01:21;;;;;;;;;;;21.30;48.80;;;;;;493904;241;1230;-54
2022/10/10 01:03:22;;;;;;;;;;;21.40;48.90;;;;;;494271;241;1168;-54
2022/10/10 01:05:24;;;;;;;;;;;21.40;48.80;;;;;;493819;241;1344;-54
2022/10/10 01:07:25;;;;;;;;;;;21.40;48.80;;;;;;493846;241;1109;-54
2022/10/10 01:09:26;;;;;;;;;;;21.40;48.80;;;;;;493829;241;1136;-54
2022/10/10 01:11:28;;;;;;;;;;;21.40;48.90;;;;;;493812;241;1162;-53
2022/10/10 01:13:29;;;;;;;;;;;21.40;48.90;;;;;;493883;241;1095;-54
2022/10/10 01:15:30;;;;;;;;;;;21.30;48.80;;;;;;494287;241;1100;-53
2022/10/10 01:17:32;;;;;;;;;;;21.40;48.80;;;;;;494307;241;1150;-54
2022/10/10 01:19:33;;;;;;;;;;;21.40;48.80;;;;;;494116;241;2140;-54
2022/10/10 01:21:34;;;;;;;;;;;21.30;48.80;;;;;;494202;241;1303;-53
2022/10/10 01:23:35;;;;;;;;;;;21.40;48.80;;;;;;494163;241;1277;-53
2022/10/10 01:25:37;;;;;;;;;;;21.30;48.80;;;;;;493996;241;1278;-53
2022/10/10 01:27:38;;;;;;;;;;;21.40;48.80;;;;;;493832;241;1300;-53
2022/10/10 01:29:40;;;;;;;;;;;21.40;48.80;;;;;;494112;241;1250;-53
2022/10/10 01:31:41;;;;;;;;;;;21.30;48.80;;;;;;493784;241;1199;-53
2022/10/10 01:33:42;;;;;;;;;;;21.40;48.90;;;;;;494274;241;1269;-54
2022/10/10 01:35:44;;;;;;;;;;;21.30;48.90;;;;;;493764;241;1221;-54
2022/10/10 01:37:45;;;;;;;;;;;21.30;48.80;;;;;;493927;241;1414;-54
2022/10/10 01:39:46;;;;;;;;;;;21.30;48.90;;;;;;493948;241;2144;-54
2022/10/10 01:41:48;;;;;;;;;;;21.30;48.90;;;;;;494025;241;1192;-54
2022/10/10 01:43:49;;;;;;;;;;;21.30;48.80;;;;;;494263;241;1227;-53
2022/10/10 01:45:50;;;;;;;;;;;21.30;48.80;;;;;;493833;241;1201;-53
2022/10/10 01:47:52;;;;;;;;;;;21.30;48.90;;;;;;494274;241;1225;-54
2022/10/10 01:49:53;;;;;;;;;;;21.40;48.90;;;;;;494216;241;1199;-54
2022/10/10 01:51:54;;;;;;;;;;;21.40;48.80;;;;;;494261;241;1497;-53
2022/10/10 01:53:56;;;;;;;;;;;21.40;48.80;;;;;;493794;241;1213;-53
2022/10/10 01:55:57;;;;;;;;;;;21.40;48.90;;;;;;493801;241;1536;-53
2022/10/10 01:57:58;;;;;;;;;;;21.30;48.80;;;;;;493839;241;1391;-54
2022/10/10 02:00:00;;;;;;;;;;;21.30;48.80;;;;;;494235;241;2203;-54
2022/10/10 02:02:01;;;;;;;;;;;21.30;48.80;;;;;;493802;241;1164;-53
2022/10/10 02:04:02;;;;;;;;;;;21.30;48.80;;;;;;494263;241;1236;-53
2022/10/10 02:06:03;;;;;;;;;;;21.30;48.90;;;;;;493823;241;1200;-54
2022/10/10 02:08:05;;;;;;;;;;;21.30;48.90;;;;;;493944;241;1238;-54
2022/10/10 02:10:06;;;;;;;;;;;21.30;48.80;;;;;;494283;241;1117;-54
2022/10/10 02:12:08;;;;;;;;;;;21.30;48.90;;;;;;494047;241;1251;-53
2022/10/10 02:14:09;;;;;;;;;;;21.30;48.90;;;;;;493971;241;1304;-53
2022/10/10 02:16:10;;;;;;;;;;;21.30;48.90;;;;;;493862;241;1281;-54
2022/10/10 02:18:11;;;;;;;;;;;21.30;48.90;;;;;;493804;241;1280;-53
2022/10/10 02:20:13;;;;;;;;;;;21.30;48.90;;;;;;493822;241;2156;-53
2022/10/10 02:22:14;;;;;;;;;;;21.30;48.90;;;;;;494260;241;1262;-53
2022/10/10 02:24:15;;;;;;;;;;;21.30;48.90;;;;;;494283;241;1209;-54
2022/10/10 02:26:17;;;;;;;;;;;21.30;48.90;;;;;;494046;241;1446;-53
2022/10/10 02:28:18;;;;;;;;;;;21.30;48.90;;;;;;493797;241;1211;-54
2022/10/10 02:30:19;;;;;;;;;;;21.30;48.90;;;;;;494257;241;1233;-53
2022/10/10 02:32:21;;;;;;;;;;;21.40;48.90;;;;;;494121;241;1654;-53
2022/10/10 02:34:22;;;;;;;;;;;21.30;48.80;;;;;;494304;241;1176;-54
2022/10/10 02:36:23;;;;;;;;;;;21.30;48.80;;;;;;494178;241;1335;-53
2022/10/10 02:38:25;;;;;;;;;;;21.30;48.90;;;;;;494000;241;1197;-54
2022/10/10 02:40:26;;;;;;;;;;;21.30;48.90;;;;;;494234;241;2187;-53
2022/10/10 02:42:27;;;;;;;;;;;21.30;48.90;;;;;;493876;241;1220;-54
2022/10/10 02:44:29;;;;;;;;;;;21.30;48.90;;;;;;494123;241;1265;-54
2022/10/10 02:46:30;;;;;;;;;;;21.30;48.90;;;;;;494284;241;1328;-53
2022/10/10 02:48:31;;;;;;;;;;;21.30;48.90;;;;;;494044;241;1602;-54
2022/10/10 02:50:33;;;;;;;;;;;21.30;48.90;;;;;;494276;241;1201;-54
2022/10/10 02:52:34;;;;;;;;;;;21.30;48.90;;;;;;494179;241;1387;-53
2022/10/10 02:54:35;;;;;;;;;;;21.50;48.60;;;;;;493812;241;1336;-53
2022/10/10 02:56:37;;;;;;;;;;;21.60;48.10;;;;;;493816;241;1207;-54
2022/10/10 02:58:38;;;;;;;;;;;21.80;47.90;;;;;;493775;241;1239;-53
2022/10/10 03:00:39;;;;;;;;;;;21.90;47.70;;;;;;494230;241;2190;-54
2022/10/10 03:02:41;;;;;;;;;;;21.90;47.50;;;;;;494286;241;1145;-54
2022/10/10 03:04:43;;;;;;;;;;;21.90;47.50;;;;;;493866;241;1311;-54
2022/10/10 03:06:44;;;;;;;;;;;21.80;47.70;;;;;;493752;241;2152;-54
2022/10/10 03:08:45;;;;;;;;;;;21.70;47.90;;;;;;493806;241;1267;-54
2022/10/10 03:10:46;;;;;;;;;;;21.70;48.10;;;;;;494286;241;1213;-53
2022/10/10 03:12:48;;;;;;;;;;;21.60;48.20;;;;;;494074;241;1119;-54
2022/10/10 03:14:49;;;;;;;;;;;21.60;48.30;;;;;;493794;241;1077;-53
2022/10/10 03:16:50;;;;;;;;;;;21.60;48.40;;;;;;493817;241;1056;-53
2022/10/10 03:18:52;;;;;;;;;;;21.60;48.50;;;;;;494289;241;1084;-54
2022/10/10 03:20:53;;;;;;;;;;;21.50;48.50;;;;;;494289;241;2139;-53
2022/10/10 03:22:54;;;;;;;;;;;21.50;48.50;;;;;;494315;241;1092;-53
2022/10/10 03:24:55;;;;;;;;;;;21.50;48.60;;;;;;493852;241;1258;-53
2022/10/10 03:26:57;;;;;;;;;;;21.50;48.60;;;;;;493833;241;1161;-53
2022/10/10 03:28:58;;;;;;;;;;;21.50;48.70;;;;;;493811;241;1198;-53
2022/10/10 03:30:59;;;;;;;;;;;21.40;48.60;;;;;;493784;241;1186;-54
2022/10/10 03:33:01;;;;;;;;;;;21.40;48.70;;;;;;493798;241;1231;-53
2022/10/10 03:35:02;;;;;;;;;;;21.40;48.70;;;;;;493909;241;1235;-54
2022/10/10 03:37:03;;;;;;;;;;;21.40;48.70;;;;;;493796;241;1219;-53
2022/10/10 03:39:06;;;;;;;;;;;21.40;48.70;;;;;;494280;241;1205;-53
2022/10/10 03:41:06;;;;;;;;;;;21.40;48.80;;;;;;493612;241;2144;-53
2022/10/10 03:43:07;;;;;;;;;;;21.40;48.80;;;;;;493775;241;1382;-53
2022/10/10 03:45:09;;;;;;;;;;;21.40;48.80;;;;;;494265;241;1242;-53
2022/10/10 03:47:10;;;;;;;;;;;21.40;48.70;;;;;;493839;241;1171;-54
2022/10/10 03:49:11;;;;;;;;;;;21.40;48.70;;;;;;494200;241;1163;-53
2022/10/10 03:51:13;;;;;;;;;;;21.40;48.80;;;;;;493799;241;1272;-53
2022/10/10 03:53:14;;;;;;;;;;;21.40;48.80;;;;;;493952;241;1207;-53
2022/10/10 03:55:15;;;;;;;;;;;21.40;48.80;;;;;;493984;241;1197;-53
2022/10/10 03:57:17;;;;;;;;;;;21.40;48.80;;;;;;493852;241;1225;-54
2022/10/10 03:59:18;;;;;;;;;;;21.40;48.70;;;;;;493804;241;1124;-53
2022/10/10 04:01:19;;;;;;;;;;;21.40;48.80;;;;;;494250;241;2183;-53
2022/10/10 04:03:21;;;;;;;;;;;21.40;48.80;;;;;;494277;241;1128;-53
2022/10/10 04:05:22;;;;;;;;;;;21.40;48.80;;;;;;494283;241;1180;-54
2022/10/10 04:07:23;;;;;;;;;;;21.40;48.80;;;;;;494259;241;1317;-53
2022/10/10 04:09:25;;;;;;;;;;;21.40;48.90;;;;;;494280;241;1180;-54
2022/10/10 04:11:26;;;;;;;;;;;21.40;48.90;;;;;;493821;241;1238;-53
2022/10/10 04:13:27;;;;;;;;;;;21.40;48.90;;;;;;493819;241;1166;-53
2022/10/10 04:15:29;;;;;;;;;;;21.40;48.90;;;;;;493783;241;1252;-53
2022/10/10 04:17:30;;;;;;;;;;;21.30;48.90;;;;;;493813;241;1197;-54
2022/10/10 04:19:32;;;;;;;;;;;21.40;48.90;;;;;;493801;241;1189;-53
2022/10/10 04:21:33;;;;;;;;;;;21.40;48.90;;;;;;494205;241;2378;-53
2022/10/10 04:23:34;;;;;;;;;;;21.40;48.90;;;;;;493900;241;1232;-53
2022/10/10 04:25:36;;;;;;;;;;;21.40;48.90;;;;;;493760;241;1207;-54
2022/10/10 04:27:37;;;;;;;;;;;21.40;48.90;;;;;;494217;241;1275;-54
2022/10/10 04:29:38;;;;;;;;;;;21.40;48.80;;;;;;493751;241;1277;-53
2022/10/10 04:31:40;;;;;;;;;;;21.40;48.80;;;;;;494252;241;1209;-53
2022/10/10 04:33:41;;;;;;;;;;;21.30;48.80;;;;;;494253;241;1187;-54
2022/10/10 04:35:42;;;;;;;;;;;21.40;48.80;;;;;;493794;241;1269;-53
2022/10/10 04:37:45;;;;;;;;;;;21.40;48.90;;;;;;494263;241;1545;-54
2022/10/10 04:39:46;;;;;;;;;;;21.40;48.90;;;;;;493813;241;1193;-53
2022/10/10 04:41:48;;;;;;;;;;;21.40;48.90;;;;;;494259;241;2159;-53
2022/10/10 04:43:49;;;;;;;;;;;21.30;48.90;;;;;;493944;241;1222;-54
2022/10/10 04:45:51;;;;;;;;;;;21.30;48.90;;;;;;493941;241;1239;-53
2022/10/10 04:47:52;;;;;;;;;;;21.30;48.90;;;;;;493830;241;1427;-53
2022/10/10 04:49:53;;;;;;;;;;;21.30;48.90;;;;;;494127;241;1101;-53
2022/10/10 04:51:55;;;;;;;;;;;21.40;48.80;;;;;;493849;241;1115;-53
2022/10/10 04:53:56;;;;;;;;;;;21.30;48.90;;;;;;494016;241;1074;-53
2022/10/10 04:55:57;;;;;;;;;;;21.40;48.90;;;;;;494307;241;1134;-53
2022/10/10 04:57:59;;;;;;;;;;;21.40;48.90;;;;;;493864;241;1341;-53
2022/10/10 05:00:00;;;;;;;;;;;21.40;48.90;;;;;;494177;241;1143;-54
2022/10/10 05:02:01;;;;;;;;;;;21.40;48.90;;;;;;493774;241;2199;-54
2022/10/10 05:04:03;;;;;;;;;;;21.40;48.90;;;;;;494271;241;1150;-53
2022/10/10 05:06:04;;;;;;;;;;;21.30;48.90;;;;;;493830;241;1196;-54
2022/10/10 05:08:05;;;;;;;;;;;21.30;48.90;;;;;;494256;241;1149;-53
2022/10/10 05:10:07;;;;;;;;;;;21.30;48.90;;;;;;493811;241;1216;-54
2022/10/10 05:12:08;;;;;;;;;;;21.40;48.90;;;;;;494034;241;1195;-53
2022/10/10 05:14:09;;;;;;;;;;;21.40;48.90;;;;;;493786;241;1182;-53
2022/10/10 05:16:11;;;;;;;;;;;21.30;48.90;;;;;;493797;241;1315;-53
2022/10/10 05:18:12;;;;;;;;;;;21.40;49.00;;;;;;493803;241;1278;-54
2022/10/10 05:20:13;;;;;;;;;;;21.40;48.90;;;;;;494265;241;1181;-53
2022/10/10 05:22:15;;;;;;;;;;;21.30;48.80;;;;;;493948;241;2108;-53
2022/10/10 05:24:16;;;;;;;;;;;21.30;48.90;;;;;;494256;241;1235;-54
2022/10/10 05:26:18;;;;;;;;;;;21.40;49.00;;;;;;494115;241;1342;-53
2022/10/10 05:28:19;;;;;;;;;;;21.40;48.90;;;;;;493829;241;1808;-53
2022/10/10 05:30:20;;;;;;;;;;;21.30;48.90;;;;;;493852;241;1244;-53
2022/10/10 05:32:21;;;;;;;;;;;21.40;49.00;;;;;;493922;241;1076;-53
2022/10/10 05:34:23;;;;;;;;;;;21.40;48.90;;;;;;493791;241;1128;-54
2022/10/10 05:36:24;;;;;;;;;;;21.40;48.90;;;;;;493907;241;1181;-54
2022/10/10 05:38:25;;;;;;;;;;;21.30;48.90;;;;;;493658;241;1356;-54
2022/10/10 05:40:27;;;;;;;;;;;21.30;48.90;;;;;;494090;241;1271;-53
2022/10/10 05:42:28;;;;;;;;;;;21.30;48.80;;;;;;494243;241;2112;-53
2022/10/10 05:44:30;;;;;;;;;;;21.30;48.90;;;;;;493975;241;1207;-54
2022/10/10 05:46:31;;;;;;;;;;;21.30;48.90;;;;;;494177;241;1188;-54
2022/10/10 05:48:32;;;;;;;;;;;21.40;48.90;;;;;;493978;241;1116;-53
2022/10/10 05:50:34;;;;;;;;;;;21.40;48.90;;;;;;494074;241;1256;-53
2022/10/10 05:52:35;;;;;;;;;;;21.40;48.90;;;;;;493779;241;1345;-53
2022/10/10 05:54:36;;;;;;;;;;;21.30;48.90;;;;;;494262;241;1145;-53
2022/10/10 05:56:38;;;;;;;;;;;21.40;48.90;;;;;;494221;241;1087;-54
2022/10/10 05:58:39;;;;;;;;;;;21.30;48.80;;;;;;494139;241;1242;-54
2022/10/10 06:00:40;;;;;;;;;;;21.40;48.90;;;;;;493670;241;2155;-54
2022/10/10 06:02:41;;;;;;;;;;;21.30;48.80;;;;;;493651;241;1241;-53
2022/10/10 06:04:43;;;;;;;;;;;21.40;48.90;;;;;;493964;241;1204;-54
2022/10/10 06:06:44;;;;;;;;;;;21.40;48.90;;;;;;493688;241;1301;-53
2022/10/10 06:08:45;;;;;;;;;;;21.40;48.90;;;;;;493733;241;1344;-53
2022/10/10 06:10:47;;;;;;;;;;;21.30;48.90;;;;;;493658;241;1459;-54
2022/10/10 06:12:48;;;;;;;;;;;21.40;49.00;;;;;;493741;241;1232;-53
2022/10/10 06:14:49;;;;;;;;;;;21.30;48.80;;;;;;493652;241;1507;-53
2022/10/10 06:16:51;;;;;;;;;;;21.40;48.90;;;;;;493981;241;1286;-54
2022/10/10 06:18:53;;;;;;;;;;;21.40;48.90;;;;;;493759;241;1211;-54
2022/10/10 06:20:54;;;;;;;;;;;21.40;48.90;;;;;;493872;241;2157;-54
2022/10/10 06:22:55;;;;;;;;;;;21.40;48.80;;;;;;493808;241;1219;-53
2022/10/10 06:24:56;;;;;;;;;;;21.40;49.00;;;;;;493628;241;1236;-53
2022/10/10 06:26:58;;;;;;;;;;;21.40;48.90;;;;;;493667;241;1237;-53
2022/10/10 06:28:59;;;;;;;;;;;21.40;48.90;;;;;;494077;241;1148;-53
2022/10/10 06:31:01;;;;;;;;;;;21.40;48.90;;;;;;493581;241;1211;-53
2022/10/10 06:33:02;;;;;;;;;;;21.30;48.80;;;;;;494031;241;1266;-53
2022/10/10 06:35:03;;;;;;;;;;;21.40;48.90;;;;;;494189;241;1285;-54
2022/10/10 06:37:05;;;;;;;;;;;21.40;49.00;;;;;;493678;241;1182;-53
2022/10/10 06:39:06;;;;;;;;;;;21.40;49.00;;;;;;493870;241;1347;-54
2022/10/10 06:41:07;;;;;;;;;;;21.40;48.90;;;;;;493636;241;2195;-53
2022/10/10 06:43:10;;;;;;;;;;;21.40;49.00;;;;;;493759;241;1162;-53
2022/10/10 06:45:11;;;;;;;;;;;21.40;49.00;;;;;;493697;241;2246;-54
2022/10/10 06:47:12;;;;;;;;;;;21.40;49.00;;;;;;493765;241;1274;-53
2022/10/10 06:49:13;;;;;;;;;;;21.40;49.00;;;;;;493635;241;1148;-54
2022/10/10 06:51:15;;;;;;;;;;;21.40;49.00;;;;;;493403;241;1170;-53
2022/10/10 06:53:16;;;;;;;;;;;21.40;49.00;;;;;;493672;241;1196;-53
2022/10/10 06:55:17;;;;;;;;;;;21.40;48.90;;;;;;493559;241;1245;-53
2022/10/10 06:57:19;;;;;;;;;;;21.40;48.90;;;;;;493610;241;1107;-53
2022/10/10 06:59:20;;;;;;;;;;;21.40;49.00;;;;;;494214;241;1124;-53
2022/10/10 07:01:21;;;;;;;;;;;21.40;49.00;;;;;;493573;241;2162;-53
2022/10/10 07:03:23;;;;;;;;;;;21.40;49.00;;;;;;494109;241;1077;-53
2022/10/10 07:05:24;;;;;;;;;;;21.40;49.00;;;;;;494001;241;1193;-53
2022/10/10 07:07:25;;;;;;;;;;;21.40;48.90;;;;;;493996;241;1264;-54
2022/10/10 07:09:27;;;;;;;;;;;21.40;48.90;;;;;;493990;241;1131;-54
2022/10/10 07:11:28;;;;;;;;;;;21.40;49.00;;;;;;493551;241;1324;-53
2022/10/10 07:13:29;;;;;;;;;;;21.40;49.00;;;;;;493917;241;1294;-53
2022/10/10 07:15:31;;;;;;;;;;;21.40;49.00;;;;;;493508;241;1228;-53
2022/10/10 07:17:32;;;;;;;;;;;21.40;49.00;;;;;;493646;241;1212;-54
2022/10/10 07:19:33;;;;;;;;;;;21.40;49.00;;;;;;493450;241;1178;-54
2022/10/10 07:21:35;;;;;;;;;;;21.40;49.00;;;;;;493409;241;2194;-53
2022/10/10 07:23:36;;;;;;;;;;;21.40;49.10;;;;;;493646;241;1191;-54
2022/10/10 07:25:38;;;;;;;;;;;21.40;49.00;;;;;;493449;241;1072;-53
2022/10/10 07:27:40;;;;;;;;;;;21.40;49.10;;;;;;493670;241;1434;-53
2022/10/10 07:29:41;;;;;;;;;;;21.50;49.10;;;;;;493814;241;1219;-53
2022/10/10 07:31:42;;;;;;;;;;;21.50;49.10;;;;;;493604;241;1262;-53
2022/10/10 07:33:44;;;;;;;;;;;21.50;49.10;;;;;;493575;241;1266;-53
2022/10/10 07:35:45;;;;;;;;;;;21.50;49.10;;;;;;493813;241;1205;-53
2022/10/10 07:37:46;;;;;;;;;;;21.50;49.10;;;;;;494004;241;1144;-53
2022/10/10 07:39:48;;;;;;;;;;;21.50;49.20;;;;;;493508;241;1135;-53
2022/10/10 07:41:49;;;;;;;;;;;21.50;49.10;;;;;;493350;241;2168;-54
2022/10/10 07:43:50;;;;;;;;;;;21.40;49.10;;;;;;493438;241;1238;-53
2022/10/10 07:45:52;;;;;;;;;;;21.50;49.10;;;;;;493502;241;1604;-53
2022/10/10 07:47:53;;;;;;;;;;;21.50;49.20;;;;;;493461;241;1179;-53
2022/10/10 07:49:54;;;;;;;;;;;21.50;49.20;;;;;;493587;241;1197;-53
2022/10/10 07:51:56;;;;;;;;;;;21.40;49.20;;;;;;493545;241;1215;-54
2022/10/10 07:53:57;;;;;;;;;;;21.50;49.30;;;;;;493425;241;1271;-53
2022/10/10 07:55:59;;;;;;;;;;;21.50;49.20;;;;;;493402;241;1292;-53
2022/10/10 07:58:02;;;;;;;;;;;21.50;49.20;;;;;;493652;241;1247;-54
2022/10/10 08:00:02;;;;;;;;;;;21.50;49.20;;;;;;493496;241;2388;-53
2022/10/10 08:02:03;;;;;;;;;;;21.50;49.20;;;;;;493373;241;2202;-54
2022/10/10 08:04:04;;;;;;;;;;;21.50;49.30;;;;;;493503;241;1486;-53
2022/10/10 08:06:06;;;;;;;;;;;21.40;49.20;;;;;;493283;241;1117;-53
2022/10/10 08:08:07;;;;;;;;;;;21.50;49.30;;;;;;493511;241;1191;-54
2022/10/10 08:10:08;;;;;;;;;;;21.50;49.30;;;;;;493449;241;1272;-53
2022/10/10 08:12:10;;;;;;;;;;;21.50;49.30;;;;;;493445;241;1124;-53
2022/10/10 08:14:11;;;;;;;;;;;21.50;49.30;;;;;;493514;241;1217;-53
2022/10/10 08:16:12;;;;;;;;;;;21.50;49.30;;;;;;493427;241;1193;-53
2022/10/10 08:18:14;;;;;;;;;;;21.50;49.30;;;;;;493506;241;1283;-54
2022/10/10 08:20:15;;;;;;;;;;;21.50;49.30;;;;;;493457;241;1238;-53
2022/10/10 08:22:16;;;;;;;;;;;21.50;49.30;;;;;;493496;241;2171;-53
2022/10/10 08:24:18;;;;;;;;;;;21.50;49.30;;;;;;493752;241;1184;-54
2022/10/10 08:26:19;;;;;;;;;;;21.50;49.30;;;;;;493674;241;1143;-54
2022/10/10 08:28:20;;;;;;;;;;;21.50;49.30;;;;;;493689;241;1238;-54
2022/10/10 08:30:22;;;;;;;;;;;21.50;49.30;;;;;;493624;241;1147;-53
2022/10/10 08:32:23;;;;;;;;;;;21.50;49.30;;;;;;493440;241;1235;-54
2022/10/10 08:34:25;;;;;;;;;;;21.50;49.30;;;;;;493620;241;1183;-54
2022/10/10 08:36:27;;;;;;;;;;;21.50;49.30;;;;;;493561;241;1097;-53
2022/10/10 08:38:28;;;;;;;;;;;21.50;49.30;;;;;;493351;241;1147;-53
2022/10/10 08:40:29;;;;;;;;;;;21.50;49.30;;;;;;493163;241;1093;-54
2022/10/10 08:42:30;;;;;;;;;;;21.50;49.30;;;;;;492877;241;2167;-53
2022/10/10 08:44:32;;;;;;;;;;;21.50;49.30;;;;;;493081;241;1109;-53
2022/10/10 08:46:33;;;;;;;;;;;21.50;49.30;;;;;;493529;241;1422;-53
2022/10/10 08:48:34;;;;;;;;;;;21.50;49.30;;;;;;493476;241;1107;-54
2022/10/10 08:50:38;;;;;;;;;;;21.50;49.30;;;;;;493491;241;1217;-53
2022/10/10 08:52:37;;;;;;;;;;;21.50;49.30;;;;;;493437;241;2153;-53
2022/10/10 08:54:39;;;;;;;;;;;21.50;49.40;;;;;;493201;241;1120;-54
2022/10/10 08:56:40;;;;;;;;;;;21.50;49.40;;;;;;493817;241;1154;-53
2022/10/10 08:58:41;;;;;;;;;;;21.50;49.40;;;;;;493530;241;1311;-53
2022/10/10 09:00:43;;;;;;;;;;;21.50;49.40;;;;;;493726;241;1290;-54
2022/10/10 09:02:44;;;;;;;;;;;21.50;49.40;;;;;;493481;241;2211;-53
2022/10/10 09:04:45;;;;;;;;;;;21.60;49.40;;;;;;493398;241;1164;-53
2022/10/10 09:06:47;;;;;;;;;;;21.50;49.40;;;;;;493429;241;1352;-53
2022/10/10 09:08:48;;;;;;;;;;;21.50;49.50;;;;;;493347;241;1180;-53
2022/10/10 09:10:51;;;;;;;;;;;21.50;49.40;;;;;;493458;241;1180;-49
2022/10/10 09:12:51;;;;;;;;;;;21.50;49.40;;;;;;493492;241;2277;-53
2022/10/10 09:14:52;;;;;;;;;;;21.50;49.40;;;;;;493699;241;1295;-54
2022/10/10 09:16:53;;;;;;;;;;;21.60;49.50;;;;;;493435;241;1435;-54
2022/10/10 09:18:55;;;;;;;;;;;21.50;49.40;;;;;;493474;241;1257;-53
2022/10/10 09:20:56;;;;;;;;;;;21.60;49.50;;;;;;493469;241;1262;-53
2022/10/10 09:22:57;;;;;;;;;;;21.50;49.40;;;;;;493996;241;2162;-53
2022/10/10 09:24:59;;;;;;;;;;;21.60;49.50;;;;;;493484;241;1438;-52
2022/10/10 09:27:00;;;;;;;;;;;21.60;49.50;;;;;;493527;241;1325;-53
2022/10/10 09:29:01;;;;;;;;;;;21.60;49.50;;;;;;493549;241;1179;-53
2022/10/10 09:31:03;;;;;;;;;;;21.60;49.60;;;;;;493476;241;1258;-54
2022/10/10 09:33:04;;;;;;;;;;;21.50;49.50;;;;;;493462;241;1254;-54
2022/10/10 09:35:05;;;;;;;;;;;21.60;49.60;;;;;;493586;241;1209;-54
2022/10/10 09:37:07;;;;;;;;;;;21.50;49.50;;;;;;493682;241;1215;-53
2022/10/10 09:39:08;;;;;;;;;;;21.60;49.50;;;;;;493613;241;1146;-53
2022/10/10 09:41:09;;;;;;;;;;;21.60;49.50;;;;;;493322;241;1181;-54
2022/10/10 09:43:11;;;;;;;;;;;21.60;49.60;;;;;;493615;241;2152;-53
2022/10/10 09:45:12;;;;;;;;;;;21.60;49.60;;;;;;493384;241;1076;-54
2022/10/10 09:47:13;;;;;;;;;;;21.50;49.60;;;;;;493432;241;1166;-54
2022/10/10 09:49:14;;;;;;;;;;;21.50;49.60;;;;;;493624;241;1195;-54
2022/10/10 09:51:16;;;;;;;;;;;21.50;49.60;;;;;;493456;241;1225;-54
2022/10/10 09:53:17;;;;;;;;;;;21.50;49.60;;;;;;493712;241;1188;-53
2022/10/10 09:55:18;;;;;;;;;;;21.50;49.60;;;;;;493680;241;1214;-53
2022/10/10 09:57:20;;;;;;;;;;;21.50;49.60;;;;;;493667;241;1461;-54
2022/10/10 09:59:21;;;;;;;;;;;21.50;49.70;;;;;;493474;241;1346;-54
2022/10/10 10:01:22;;;;;;;;;;;21.60;49.70;;;;;;493453;241;1324;-53
2022/10/10 10:03:24;;;;;;;;;;;21.60;49.70;;;;;;493573;241;2195;-54
2022/10/10 10:05:25;;;;;;;;;;;21.60;49.70;;;;;;493457;241;1205;-54
2022/10/10 10:07:26;;;;;;;;;;;21.60;49.70;;;;;;493644;241;1095;-52
2022/10/10 10:09:28;;;;;;;;;;;21.50;49.60;;;;;;493875;241;1110;-53
2022/10/10 10:11:29;;;;;;;;;;;21.60;49.70;;;;;;493477;241;1162;-54
2022/10/10 10:13:31;;;;;;;;;;;21.60;49.70;;;;;;493759;241;1187;-53
2022/10/10 10:15:32;;;;;;;;;;;21.60;49.70;;;;;;493513;241;1143;-53
2022/10/10 10:17:33;;;;;;;;;;;21.60;49.70;;;;;;493224;241;1145;-53
2022/10/10 10:19:35;;;;;;;;;;;21.50;49.60;;;;;;493549;241;1091;-53
2022/10/10 10:21:36;;;;;;;;;;;21.60;49.70;;;;;;493525;241;1172;-53
2022/10/10 10:23:37;;;;;;;;;;;21.60;49.70;;;;;;493523;241;2187;-53
2022/10/10 10:25:39;;;;;;;;;;;21.50;49.70;;;;;;493582;241;1182;-54
2022/10/10 10:27:40;;;;;;;;;;;21.60;49.70;;;;;;493641;241;1108;-53
2022/10/10 10:29:43;;;;;;;;;;;21.60;49.70;;;;;;493640;241;1191;-54
2022/10/10 10:31:43;;;;;;;;;;;21.60;49.70;;;;;;493291;241;1363;-53
2022/10/10 10:33:45;;;;;;;;;;;21.60;49.70;;;;;;493646;241;1266;-53
2022/10/10 10:35:46;;;;;;;;;;;21.60;49.70;;;;;;493705;241;1306;-53
2022/10/10 10:37:47;;;;;;;;;;;21.60;49.70;;;;;;493589;241;1270;-52
2022/10/10 10:39:48;;;;;;;;;;;21.60;49.70;;;;;;493996;241;1253;-54
2022/10/10 10:41:50;;;;;;;;;;;21.60;49.80;;;;;;493381;241;1289;-52
2022/10/10 10:43:51;;;;;;;;;;;21.60;49.80;;;;;;493601;241;2148;-53
2022/10/10 10:45:52;;;;;;;;;;;21.60;49.80;;;;;;493501;241;1656;-54
2022/10/10 10:47:54;;;;;;;;;;;21.60;49.80;;;;;;493592;241;1281;-54
2022/10/10 10:49:55;;;;;;;;;;;21.60;49.80;;;;;;493470;241;1503;-53
2022/10/10 10:51:56;;;;;;;;;;;21.60;49.80;;;;;;493509;241;1177;-53
2022/10/10 10:53:58;;;;;;;;;;;21.60;49.80;;;;;;493454;241;1184;-53
2022/10/10 10:55:59;;;;;;;;;;;21.60;49.80;;;;;;493502;241;2029;-54
2022/10/10 10:58:00;;;;;;;;;;;21.60;49.80;;;;;;493465;241;1179;-53
2022/10/10 11:00:02;;;;;;;;;;;21.60;49.80;;;;;;493550;241;1223;-53
2022/10/10 11:02:03;;;;;;;;;;;21.60;49.80;;;;;;493555;241;1185;-54
2022/10/10 11:04:05;;;;;;;;;;;21.60;49.80;;;;;;493507;241;2191;-53
2022/10/10 11:06:06;;;;;;;;;;;21.60;49.80;;;;;;493479;241;1237;-53
2022/10/10 11:08:07;;;;;;;;;;;21.60;49.90;;;;;;493535;241;1293;-53
2022/10/10 11:10:09;;;;;;;;;;;21.60;49.80;;;;;;493374;241;1178;-54
2022/10/10 11:12:10;;;;;;;;;;;21.60;49.90;;;;;;493270;241;1169;-54
2022/10/10 11:14:12;;;;;;;;;;;21.60;49.90;;;;;;493378;241;1249;-53
2022/10/10 11:16:13;;;;;;;;;;;21.60;49.90;;;;;;493135;241;1481;-53
2022/10/10 11:18:14;;;;;;;;;;;21.60;49.90;;;;;;492611;241;1148;-52
2022/10/10 11:20:16;;;;;;;;;;;21.60;49.90;;;;;;493071;241;1259;-54
2022/10/10 11:22:17;;;;;;;;;;;21.60;49.80;;;;;;493107;241;1239;-54
2022/10/10 11:24:18;;;;;;;;;;;21.60;49.90;;;;;;493468;241;2113;-53
2022/10/10 11:26:19;;;;;;;;;;;21.60;49.90;;;;;;493398;241;1266;-54
2022/10/10 11:28:21;;;;;;;;;;;21.60;49.90;;;;;;493869;241;1223;-54
2022/10/10 11:30:22;;;;;;;;;;;21.60;50.00;;;;;;493418;241;1280;-53
2022/10/10 11:32:24;;;;;;;;;;;21.60;50.00;;;;;;493434;241;1251;-54
2022/10/10 11:34:25;;;;;;;;;;;21.60;49.90;;;;;;493487;241;1197;-53
2022/10/10 11:36:26;;;;;;;;;;;21.60;50.00;;;;;;493709;241;1520;-53
2022/10/10 11:38:27;;;;;;;;;;;21.60;50.00;;;;;;493707;241;1215;-53
2022/10/10 11:40:29;;;;;;;;;;;21.60;50.00;;;;;;493640;241;1247;-54
2022/10/10 11:42:31;;;;;;;;;;;21.60;50.00;;;;;;493328;241;1205;-53
2022/10/10 11:44:31;;;;;;;;;;;21.60;50.00;;;;;;493517;241;2159;-53
2022/10/10 11:46:33;;;;;;;;;;;21.60;50.00;;;;;;493316;241;1207;-53
2022/10/10 11:48:34;;;;;;;;;;;21.60;50.00;;;;;;493540;241;1089;-54
2022/10/10 11:50:35;;;;;;;;;;;21.60;50.00;;;;;;493438;241;1264;-54
2022/10/10 11:52:37;;;;;;;;;;;21.60;50.00;;;;;;493514;241;1206;-54
2022/10/10 11:54:38;;;;;;;;;;;21.70;50.00;;;;;;493653;241;1179;-53
2022/10/10 11:56:39;;;;;;;;;;;21.60;50.00;;;;;;493511;241;1219;-53